Time;durP1;ratioP1;P1;durP2;ratioP2;P2;SDS_P1;SDS_P2;PMS_P1;PMS_P2;Temp;Humidity;BMP_temperature;BMP_pressure;BME280_temperature;BME280_humidity;BME280_pressure;Samples;Min_cycle;Max_cycle;Signal;HPM_P1;HPM_P2
2021/09/08 11:03:31;;;;;;;11.15;8.15;;;14.40;99.90;;;;;;2162073;54;20269;31
2021/09/08 11:06:06;;;;;;;12.93;7.57;;;28.50;96.20;;;;;;2625773;47;20880;31
2021/09/08 11:08:35;;;;;;;11.50;8.25;;;28.10;96.30;;;;;;2684801;39;21211;31
2021/09/08 11:11:20;;;;;;;10.35;8.20;;;28.10;96.70;;;;;;2586907;46;20089;31
2021/09/08 11:13:54;;;;;;;10.20;7.80;;;27.90;96.00;;;;;;2586804;46;21223;31
2021/09/08 11:16:31;;;;;;;10.85;7.50;;;27.90;96.50;;;;;;2586114;46;20975;31
2021/09/08 11:19:04;;;;;;;12.85;7.20;;;27.60;95.50;;;;;;2585873;46;20131;31
2021/09/08 11:21:35;;;;;;;8.95;7.47;;;27.40;95.60;;;;;;2586061;46;20925;31
2021/09/08 11:24:09;;;;;;;8.65;7.45;;;27.40;95.70;;;;;;2586364;46;21849;31
2021/09/08 11:26:43;;;;;;;10.65;7.25;;;27.40;96.10;;;;;;2586073;46;20065;31
2021/09/08 11:29:14;;;;;;;11.10;7.30;;;27.40;96.10;;;;;;2586013;46;21226;31
2021/09/08 11:31:45;;;;;;;10.25;7.55;;;27.30;95.50;;;;;;2586165;46;21231;31
2021/09/08 11:34:23;;;;;;;7.80;6.45;;;27.20;95.60;;;;;;2684231;39;22434;31
2021/09/08 11:36:57;;;;;;;9.10;6.75;;;27.20;95.90;;;;;;2586125;46;20030;31
2021/09/08 11:39:27;;;;;;;10.95;7.20;;;27.10;94.70;;;;;;2585958;46;20081;31
2021/09/08 11:42:04;;;;;;;10.70;7.33;;;26.90;94.20;;;;;;2585856;46;20022;31
2021/09/08 11:44:40;;;;;;;12.90;7.05;;;26.80;95.30;;;;;;2585932;46;20101;31
2021/09/08 11:47:17;;;;;;;8.20;7.17;;;26.70;94.80;;;;;;2586011;46;20845;31
2021/09/08 11:49:58;;;;;;;7.70;6.65;;;26.70;95.10;;;;;;2585952;46;20022;31
2021/09/08 11:52:30;;;;;;;7.00;6.30;;;26.70;95.60;;;;;;2585382;54;20126;31
2021/09/08 11:54:59;;;;;;;8.10;6.67;;;26.80;95.90;;;;;;2585901;46;20948;31
2021/09/08 11:57:30;;;;;;;10.02;5.88;;;26.80;94.70;;;;;;2585924;46;20872;31
2021/09/08 11:59:59;;;;;;;10.60;6.70;;;26.70;94.10;;;;;;2585943;46;20097;31
2021/09/08 12:02:30;;;;;;;9.20;6.40;;;26.80;94.20;;;;;;2585726;46;20041;31
2021/09/08 12:05:02;;;;;;;10.43;5.95;;;26.80;93.90;;;;;;2585917;46;20093;31
2021/09/08 12:07:35;;;;;;;8.20;6.37;;;26.70;93.70;;;;;;2586068;46;20781;31
2021/09/08 12:10:07;;;;;;;7.70;5.50;;;26.70;92.80;;;;;;2683386;39;22437;31
2021/09/08 12:12:36;;;;;;;7.53;5.90;;;26.60;93.70;;;;;;2754364;31;27210;31
2021/09/08 12:15:08;;;;;;;6.43;5.32;;;26.70;94.10;;;;;;2585788;46;20943;31
2021/09/08 12:17:55;;;;;;;6.43;5.80;;;26.70;93.20;;;;;;2585390;54;20803;31
2021/09/08 12:20:26;;;;;;;7.05;5.93;;;26.60;93.30;;;;;;2585421;54;20031;31
2021/09/08 12:22:55;;;;;;;8.00;5.60;;;26.60;92.10;;;;;;2585418;46;20030;31
2021/09/08 12:25:25;;;;;;;9.50;6.00;;;26.60;92.70;;;;;;2683374;39;21168;31
2021/09/08 12:28:03;;;;;;;7.50;5.18;;;26.60;92.30;;;;;;2585901;47;21152;31
2021/09/08 12:30:35;;;;;;;7.72;5.35;;;26.50;92.30;;;;;;2586056;46;20858;31
2021/09/08 12:33:07;;;;;;;6.80;6.10;;;26.50;92.30;;;;;;2586002;46;20031;31
2021/09/08 12:35:37;;;;;;;6.10;5.38;;;26.40;92.00;;;;;;2585574;46;20031;31
2021/09/08 12:38:30;;;;;;;6.65;5.40;;;26.30;91.80;;;;;;2585861;46;20984;31
2021/09/08 12:41:05;;;;;;;7.35;5.88;;;26.30;91.90;;;;;;2585897;46;20899;31
2021/09/08 12:43:38;;;;;;;6.93;5.85;;;26.30;92.30;;;;;;2585887;46;20914;31
2021/09/08 12:46:08;;;;;;;9.43;5.90;;;26.30;92.00;;;;;;2585895;46;20027;31
2021/09/08 12:48:39;;;;;;;8.65;5.97;;;26.30;92.40;;;;;;2585981;46;20925;31
2021/09/08 12:51:08;;;;;;;7.20;5.93;;;26.20;92.10;;;;;;2586150;46;21143;31
2021/09/08 12:53:39;;;;;;;6.20;5.60;;;26.20;92.80;;;;;;2585870;46;20030;31
2021/09/08 12:56:16;;;;;;;6.32;5.38;;;26.20;90.50;;;;;;2585389;54;20005;31
2021/09/08 12:58:47;;;;;;;7.70;6.18;;;26.20;91.30;;;;;;2585258;46;20951;31
2021/09/08 13:01:21;;;;;;;7.97;5.68;;;26.20;91.90;;;;;;2585832;46;20122;31
2021/09/08 13:03:50;;;;;;;6.20;5.55;;;26.20;91.90;;;;;;2585980;46;20030;31
2021/09/08 13:06:21;;;;;;;7.28;5.65;;;26.10;91.10;;;;;;2585946;46;20027;31
2021/09/08 13:08:53;;;;;;;10.93;6.55;;;26.10;91.20;;;;;;2586141;46;22422;31
2021/09/08 13:11:22;;;;;;;7.80;5.93;;;26.10;91.50;;;;;;2585739;47;20031;31
2021/09/08 13:13:51;;;;;;;7.35;6.20;;;26.10;91.20;;;;;;2585540;46;20243;31
2021/09/08 13:16:20;;;;;;;6.97;5.60;;;26.10;91.10;;;;;;2585600;46;20051;31
2021/09/08 13:18:51;;;;;;;6.70;5.40;;;26.10;91.70;;;;;;2585692;46;20096;31
2021/09/08 13:21:22;;;;;;;9.70;5.85;;;26.10;90.40;;;;;;2585855;46;21295;31
2021/09/08 13:23:56;;;;;;;6.70;6.00;;;26.10;90.50;;;;;;2585770;46;20948;31
2021/09/08 13:29:28;;;;;;;7.97;5.33;;;26.00;90.70;;;;;;2585594;54;20971;31
2021/09/08 13:31:57;;;;;;;9.27;5.47;;;26.00;91.80;;;;;;2585742;46;20081;31
2021/09/08 13:34:27;;;;;;;6.47;5.35;;;26.00;91.20;;;;;;2585666;46;20037;31
2021/09/08 13:37:01;;;;;;;5.87;5.23;;;26.10;91.60;;;;;;2683503;39;22330;31
2021/09/08 13:39:32;;;;;;;7.30;5.18;;;26.10;91.60;;;;;;2585665;47;20135;31
2021/09/08 13:42:03;;;;;;;9.93;5.43;;;26.10;91.20;;;;;;2585791;46;20027;31
2021/09/08 13:44:32;;;;;;;5.50;4.95;;;26.00;91.00;;;;;;2585807;46;20030;31
2021/09/08 13:47:04;;;;;;;6.37;5.40;;;26.00;91.20;;;;;;2585478;47;20026;31
2021/09/08 13:49:33;;;;;;;7.30;5.43;;;25.90;91.30;;;;;;2585017;47;20034;31
2021/09/08 13:52:03;;;;;;;6.13;5.05;;;25.90;90.70;;;;;;2585479;46;20030;31
2021/09/08 13:54:34;;;;;;;6.43;5.07;;;25.90;90.70;;;;;;2585840;46;20027;31
2021/09/08 13:59:58;;;;;;;8.25;5.45;;;25.90;90.80;;;;;;2585811;47;20920;31
2021/09/08 14:02:29;;;;;;;8.55;5.30;;;25.90;90.70;;;;;;2585133;54;20743;31
2021/09/08 14:05:03;;;;;;;6.93;5.20;;;25.80;90.80;;;;;;2585663;47;20926;31
2021/09/08 14:07:37;;;;;;;5.53;4.90;;;25.80;90.30;;;;;;2585895;47;21226;31
2021/09/08 14:10:08;;;;;;;6.87;4.50;;;25.70;90.50;;;;;;2585004;47;20030;31
2021/09/08 14:12:39;;;;;;;7.60;5.00;;;25.70;90.10;;;;;;2585114;54;20030;31
2021/09/08 14:15:12;;;;;;;6.20;5.50;;;25.70;90.20;;;;;;2585721;47;20030;31
2021/09/08 14:17:44;;;;;;;7.68;5.15;;;25.70;90.20;;;;;;2585261;54;20077;31
2021/09/08 14:20:13;;;;;;;8.65;4.72;;;25.70;90.80;;;;;;2585664;47;20030;31
2021/09/08 14:22:43;;;;;;;6.88;4.75;;;25.70;90.80;;;;;;2584801;54;20073;31
2021/09/08 14:25:12;;;;;;;5.68;5.05;;;25.70;90.90;;;;;;2585552;47;20976;31
2021/09/08 14:27:42;;;;;;;5.65;4.60;;;25.70;90.90;;;;;;2753626;31;21658;31
2021/09/08 14:30:14;;;;;;;13.43;4.78;;;25.70;90.90;;;;;;2585435;47;20990;31
2021/09/08 14:32:46;;;;;;;6.80;4.35;;;25.70;91.20;;;;;;2585549;47;20961;31
2021/09/08 14:35:18;;;;;;;9.50;5.05;;;25.70;90.60;;;;;;2585552;47;20057;31
2021/09/08 14:37:47;;;;;;;6.03;4.70;;;25.60;90.70;;;;;;2585554;47;20034;31
2021/09/08 14:40:19;;;;;;;5.75;4.80;;;25.60;91.10;;;;;;2585098;54;20900;31
2021/09/08 14:42:48;;;;;;;7.50;4.53;;;25.60;91.40;;;;;;2584849;54;20771;31
2021/09/08 14:45:18;;;;;;;5.70;4.80;;;25.60;91.00;;;;;;2585374;47;20926;31
2021/09/08 14:47:47;;;;;;;7.73;4.83;;;25.60;91.10;;;;;;2585752;47;22467;31
2021/09/08 14:50:17;;;;;;;8.75;4.65;;;25.60;91.10;;;;;;2586097;47;20284;31
2021/09/08 14:52:46;;;;;;;9.57;4.93;;;25.60;91.50;;;;;;2586157;46;20928;31
2021/09/08 14:55:15;;;;;;;5.95;4.55;;;25.60;91.70;;;;;;2586182;46;20915;31
2021/09/08 14:57:46;;;;;;;8.00;4.60;;;25.50;91.80;;;;;;2584858;46;20110;31
2021/09/08 15:00:18;;;;;;;6.43;4.80;;;25.50;90.90;;;;;;2585544;46;20030;31
2021/09/08 15:02:49;;;;;;;5.97;4.70;;;25.50;91.20;;;;;;2586134;46;20327;31
2021/09/08 15:05:19;;;;;;;7.30;4.20;;;25.60;92.00;;;;;;2586273;46;20253;31
2021/09/08 15:07:50;;;;;;;5.67;4.63;;;25.50;90.90;;;;;;2586291;46;21070;31
2021/09/08 15:10:19;;;;;;;4.85;4.35;;;25.50;90.60;;;;;;2586275;46;20828;31
2021/09/08 15:12:48;;;;;;;5.00;4.27;;;25.50;90.60;;;;;;2585703;54;20895;31
2021/09/08 15:15:17;;;;;;;4.80;4.20;;;25.40;90.80;;;;;;2586258;46;20861;31
2021/09/08 15:17:46;;;;;;;7.00;4.30;;;25.40;90.80;;;;;;2586446;46;21873;31
2021/09/08 15:20:17;;;;;;;6.05;4.10;;;25.40;90.30;;;;;;2586360;46;20870;31
2021/09/08 15:22:46;;;;;;;8.67;4.57;;;25.40;90.50;;;;;;2586209;46;20859;31
2021/09/08 15:25:17;;;;;;;5.95;4.75;;;25.40;90.80;;;;;;2586335;46;21116;31
2021/09/08 15:27:47;;;;;;;5.40;4.60;;;25.40;91.10;;;;;;2586354;46;20085;31
2021/09/08 15:30:18;;;;;;;6.13;4.50;;;25.40;90.60;;;;;;2586314;46;20863;31
2021/09/08 15:32:47;;;;;;;8.10;4.63;;;25.30;90.60;;;;;;2586294;46;20038;31
